sensor_id;sensor_type;location;lat;lon;timestamp;temperature;humidity
11239;DHT22;5677;48.488;13.436;2024-03-07T00:01:39;14.60;53.10
11239;DHT22;5677;48.488;13.436;2024-03-07T00:04:07;14.60;53.50
11239;DHT22;5677;48.488;13.436;2024-03-07T00:06:33;14.60;53.60
11239;DHT22;5677;48.488;13.436;2024-03-07T00:09:00;14.60;53.90
11239;DHT22;5677;48.488;13.436;2024-03-07T00:11:28;14.60;54.40
11239;DHT22;5677;48.488;13.436;2024-03-07T00:13:56;14.60;54.40
11239;DHT22;5677;48.488;13.436;2024-03-07T00:16:22;14.60;55.20
11239;DHT22;5677;48.488;13.436;2024-03-07T00:18:49;14.60;54.80
11239;DHT22;5677;48.488;13.436;2024-03-07T00:21:17;14.60;54.30
11239;DHT22;5677;48.488;13.436;2024-03-07T00:23:44;14.60;53.90
11239;DHT22;5677;48.488;13.436;2024-03-07T00:26:11;14.50;53.60
11239;DHT22;5677;48.488;13.436;2024-03-07T00:28:37;14.60;53.50
11239;DHT22;5677;48.488;13.436;2024-03-07T00:31:05;14.60;53.50
11239;DHT22;5677;48.488;13.436;2024-03-07T00:33:33;14.50;53.30
11239;DHT22;5677;48.488;13.436;2024-03-07T00:36:00;14.50;53.30
11239;DHT22;5677;48.488;13.436;2024-03-07T00:38:28;14.50;53.40
11239;DHT22;5677;48.488;13.436;2024-03-07T00:40:54;14.50;53.40
11239;DHT22;5677;48.488;13.436;2024-03-07T00:43:21;14.50;53.60
11239;DHT22;5677;48.488;13.436;2024-03-07T00:45:49;14.50;53.50
11239;DHT22;5677;48.488;13.436;2024-03-07T00:48:16;14.50;53.60
11239;DHT22;5677;48.488;13.436;2024-03-07T00:50:43;14.50;53.80
11239;DHT22;5677;48.488;13.436;2024-03-07T00:53:10;14.50;53.90
11239;DHT22;5677;48.488;13.436;2024-03-07T00:55:38;14.50;54.00
11239;DHT22;5677;48.488;13.436;2024-03-07T00:58:05;14.50;54.10
11239;DHT22;5677;48.488;13.436;2024-03-07T01:00:32;14.50;54.20
11239;DHT22;5677;48.488;13.436;2024-03-07T01:02:58;14.50;54.30
11239;DHT22;5677;48.488;13.436;2024-03-07T01:05:25;14.50;54.30
11239;DHT22;5677;48.488;13.436;2024-03-07T01:07:52;14.50;54.10
11239;DHT22;5677;48.488;13.436;2024-03-07T01:10:20;14.50;54.20
11239;DHT22;5677;48.488;13.436;2024-03-07T01:12:48;14.50;54.40
11239;DHT22;5677;48.488;13.436;2024-03-07T01:15:15;14.50;54.60
11239;DHT22;5677;48.488;13.436;2024-03-07T01:17:42;14.50;54.80
11239;DHT22;5677;48.488;13.436;2024-03-07T01:20:10;14.50;54.90
11239;DHT22;5677;48.488;13.436;2024-03-07T01:22:37;14.50;54.90
11239;DHT22;5677;48.488;13.436;2024-03-07T01:25:04;14.50;55.00
11239;DHT22;5677;48.488;13.436;2024-03-07T01:27:31;14.50;55.00
11239;DHT22;5677;48.488;13.436;2024-03-07T01:29:59;14.50;55.10
11239;DHT22;5677;48.488;13.436;2024-03-07T01:32:27;14.50;54.90
11239;DHT22;5677;48.488;13.436;2024-03-07T01:34:53;14.50;55.00
11239;DHT22;5677;48.488;13.436;2024-03-07T01:37:20;14.40;54.80
11239;DHT22;5677;48.488;13.436;2024-03-07T01:39:47;14.50;54.80
11239;DHT22;5677;48.488;13.436;2024-03-07T01:42:14;14.40;54.80
11239;DHT22;5677;48.488;13.436;2024-03-07T01:44:41;14.40;54.90
11239;DHT22;5677;48.488;13.436;2024-03-07T01:47:10;14.40;55.10
11239;DHT22;5677;48.488;13.436;2024-03-07T01:49:37;14.40;55.10
11239;DHT22;5677;48.488;13.436;2024-03-07T01:52:05;14.40;55.20
11239;DHT22;5677;48.488;13.436;2024-03-07T01:54:32;14.40;55.50
11239;DHT22;5677;48.488;13.436;2024-03-07T01:56:59;14.40;55.40
11239;DHT22;5677;48.488;13.436;2024-03-07T01:59:27;14.40;55.50
11239;DHT22;5677;48.488;13.436;2024-03-07T02:01:55;14.40;55.80
11239;DHT22;5677;48.488;13.436;2024-03-07T02:04:23;14.40;56.10
11239;DHT22;5677;48.488;13.436;2024-03-07T02:06:50;14.40;56.40
11239;DHT22;5677;48.488;13.436;2024-03-07T02:09:19;14.40;56.80
11239;DHT22;5677;48.488;13.436;2024-03-07T02:11:47;14.40;56.80
11239;DHT22;5677;48.488;13.436;2024-03-07T02:14:14;14.40;57.20
11239;DHT22;5677;48.488;13.436;2024-03-07T02:16:42;14.40;57.80
11239;DHT22;5677;48.488;13.436;2024-03-07T02:19:10;14.40;60.10
11239;DHT22;5677;48.488;13.436;2024-03-07T02:21:40;14.40;66.60
11239;DHT22;5677;48.488;13.436;2024-03-07T02:24:07;14.40;58.90
11239;DHT22;5677;48.488;13.436;2024-03-07T02:26:34;14.40;58.10
11239;DHT22;5677;48.488;13.436;2024-03-07T02:29:02;14.40;58.90
11239;DHT22;5677;48.488;13.436;2024-03-07T02:31:29;14.40;60.30
11239;DHT22;5677;48.488;13.436;2024-03-07T02:34:02;14.40;61.10
11239;DHT22;5677;48.488;13.436;2024-03-07T02:36:29;14.40;66.80
11239;DHT22;5677;48.488;13.436;2024-03-07T02:38:57;14.40;56.00
11239;DHT22;5677;48.488;13.436;2024-03-07T02:41:24;14.30;52.30
11239;DHT22;5677;48.488;13.436;2024-03-07T02:43:51;14.40;52.30
11239;DHT22;5677;48.488;13.436;2024-03-07T02:46:18;14.40;52.30
11239;DHT22;5677;48.488;13.436;2024-03-07T02:48:45;14.30;52.30
11239;DHT22;5677;48.488;13.436;2024-03-07T02:51:12;14.30;52.30
11239;DHT22;5677;48.488;13.436;2024-03-07T02:53:39;14.30;52.30
11239;DHT22;5677;48.488;13.436;2024-03-07T02:56:07;14.30;52.30
11239;DHT22;5677;48.488;13.436;2024-03-07T02:58:35;14.30;52.30
11239;DHT22;5677;48.488;13.436;2024-03-07T03:01:02;14.30;52.30
11239;DHT22;5677;48.488;13.436;2024-03-07T03:03:29;14.30;52.40
11239;DHT22;5677;48.488;13.436;2024-03-07T03:05:58;14.30;52.40
11239;DHT22;5677;48.488;13.436;2024-03-07T03:08:25;14.30;52.40
11239;DHT22;5677;48.488;13.436;2024-03-07T03:10:54;14.30;52.40
11239;DHT22;5677;48.488;13.436;2024-03-07T03:13:23;14.30;52.40
11239;DHT22;5677;48.488;13.436;2024-03-07T03:15:50;14.30;52.40
11239;DHT22;5677;48.488;13.436;2024-03-07T03:18:17;14.30;52.40
11239;DHT22;5677;48.488;13.436;2024-03-07T03:20:44;14.30;52.50
11239;DHT22;5677;48.488;13.436;2024-03-07T03:23:13;14.30;52.40
11239;DHT22;5677;48.488;13.436;2024-03-07T03:25:40;14.30;52.40
11239;DHT22;5677;48.488;13.436;2024-03-07T03:28:08;14.30;52.50
11239;DHT22;5677;48.488;13.436;2024-03-07T03:30:37;14.30;52.50
11239;DHT22;5677;48.488;13.436;2024-03-07T03:33:04;14.30;52.40
11239;DHT22;5677;48.488;13.436;2024-03-07T03:35:32;14.30;52.50
11239;DHT22;5677;48.488;13.436;2024-03-07T03:37:58;14.30;52.50
11239;DHT22;5677;48.488;13.436;2024-03-07T03:40:26;14.20;52.40
11239;DHT22;5677;48.488;13.436;2024-03-07T03:42:53;14.30;52.60
11239;DHT22;5677;48.488;13.436;2024-03-07T03:45:20;14.30;52.60
11239;DHT22;5677;48.488;13.436;2024-03-07T03:47:48;14.20;52.50
11239;DHT22;5677;48.488;13.436;2024-03-07T03:50:14;14.30;52.60
11239;DHT22;5677;48.488;13.436;2024-03-07T03:52:41;14.30;52.60
11239;DHT22;5677;48.488;13.436;2024-03-07T03:55:08;14.20;52.50
11239;DHT22;5677;48.488;13.436;2024-03-07T03:57:38;14.30;52.60
11239;DHT22;5677;48.488;13.436;2024-03-07T04:00:06;14.20;52.50
11239;DHT22;5677;48.488;13.436;2024-03-07T04:02:38;14.30;52.60
11239;DHT22;5677;48.488;13.436;2024-03-07T04:05:07;14.30;52.60
11239;DHT22;5677;48.488;13.436;2024-03-07T04:07:34;14.30;53.30
11239;DHT22;5677;48.488;13.436;2024-03-07T04:10:01;14.30;52.60
11239;DHT22;5677;48.488;13.436;2024-03-07T04:12:28;14.20;52.60
11239;DHT22;5677;48.488;13.436;2024-03-07T04:14:55;14.20;52.60
11239;DHT22;5677;48.488;13.436;2024-03-07T04:17:22;14.20;52.60
11239;DHT22;5677;48.488;13.436;2024-03-07T04:19:49;14.20;52.60
11239;DHT22;5677;48.488;13.436;2024-03-07T04:22:18;14.20;52.60
11239;DHT22;5677;48.488;13.436;2024-03-07T04:24:47;14.20;52.60
11239;DHT22;5677;48.488;13.436;2024-03-07T04:27:19;14.20;52.60
11239;DHT22;5677;48.488;13.436;2024-03-07T04:29:46;14.20;52.60
11239;DHT22;5677;48.488;13.436;2024-03-07T04:32:15;14.20;52.60
11239;DHT22;5677;48.488;13.436;2024-03-07T04:34:43;14.20;52.60
11239;DHT22;5677;48.488;13.436;2024-03-07T04:37:10;14.20;52.60
11239;DHT22;5677;48.488;13.436;2024-03-07T04:39:38;14.20;52.60
11239;DHT22;5677;48.488;13.436;2024-03-07T04:42:06;14.20;52.60
11239;DHT22;5677;48.488;13.436;2024-03-07T04:44:33;14.20;53.30
11239;DHT22;5677;48.488;13.436;2024-03-07T04:47:02;14.20;52.60
11239;DHT22;5677;48.488;13.436;2024-03-07T04:49:30;14.20;52.70
11239;DHT22;5677;48.488;13.436;2024-03-07T04:51:58;14.20;52.70
11239;DHT22;5677;48.488;13.436;2024-03-07T04:54:26;14.20;52.70
11239;DHT22;5677;48.488;13.436;2024-03-07T04:56:55;14.20;52.70
11239;DHT22;5677;48.488;13.436;2024-03-07T04:59:22;14.20;52.70
11239;DHT22;5677;48.488;13.436;2024-03-07T05:01:50;14.10;52.70
11239;DHT22;5677;48.488;13.436;2024-03-07T05:04:17;14.10;52.70
11239;DHT22;5677;48.488;13.436;2024-03-07T05:06:45;14.20;52.70
11239;DHT22;5677;48.488;13.436;2024-03-07T05:09:14;14.10;52.60
11239;DHT22;5677;48.488;13.436;2024-03-07T05:11:48;14.10;52.60
11239;DHT22;5677;48.488;13.436;2024-03-07T05:14:15;14.10;52.70
11239;DHT22;5677;48.488;13.436;2024-03-07T05:16:44;14.10;52.70
11239;DHT22;5677;48.488;13.436;2024-03-07T05:19:11;14.10;52.60
11239;DHT22;5677;48.488;13.436;2024-03-07T05:21:38;14.10;52.70
11239;DHT22;5677;48.488;13.436;2024-03-07T05:24:07;14.10;52.70
11239;DHT22;5677;48.488;13.436;2024-03-07T05:26:34;14.20;52.70
11239;DHT22;5677;48.488;13.436;2024-03-07T05:29:08;14.10;52.70
11239;DHT22;5677;48.488;13.436;2024-03-07T05:31:37;14.20;52.70
11239;DHT22;5677;48.488;13.436;2024-03-07T05:34:09;14.10;52.70
11239;DHT22;5677;48.488;13.436;2024-03-07T05:36:36;14.10;52.70
11239;DHT22;5677;48.488;13.436;2024-03-07T05:39:09;14.10;52.90
11239;DHT22;5677;48.488;13.436;2024-03-07T05:41:36;14.10;52.90
11239;DHT22;5677;48.488;13.436;2024-03-07T05:44:04;14.20;53.80
11239;DHT22;5677;48.488;13.436;2024-03-07T05:46:36;14.20;54.90
11239;DHT22;5677;48.488;13.436;2024-03-07T05:49:06;14.10;55.70
11239;DHT22;5677;48.488;13.436;2024-03-07T05:51:33;14.10;55.30
11239;DHT22;5677;48.488;13.436;2024-03-07T05:54:00;14.20;56.20
11239;DHT22;5677;48.488;13.436;2024-03-07T05:56:27;14.20;56.70
11239;DHT22;5677;48.488;13.436;2024-03-07T05:58:54;14.20;56.90
11239;DHT22;5677;48.488;13.436;2024-03-07T06:01:21;14.20;57.00
11239;DHT22;5677;48.488;13.436;2024-03-07T06:03:52;14.20;57.10
11239;DHT22;5677;48.488;13.436;2024-03-07T06:06:19;14.20;57.10
11239;DHT22;5677;48.488;13.436;2024-03-07T06:08:46;14.20;57.20
11239;DHT22;5677;48.488;13.436;2024-03-07T06:11:13;14.30;57.20
11239;DHT22;5677;48.488;13.436;2024-03-07T06:13:46;14.30;57.20
11239;DHT22;5677;48.488;13.436;2024-03-07T06:16:12;14.30;57.20
11239;DHT22;5677;48.488;13.436;2024-03-07T06:18:40;14.30;57.10
11239;DHT22;5677;48.488;13.436;2024-03-07T06:21:08;14.30;57.20
11239;DHT22;5677;48.488;13.436;2024-03-07T06:23:35;14.40;57.10
11239;DHT22;5677;48.488;13.436;2024-03-07T06:26:02;14.40;57.10
11239;DHT22;5677;48.488;13.436;2024-03-07T06:28:37;14.30;57.10
11239;DHT22;5677;48.488;13.436;2024-03-07T06:31:04;14.40;57.00
11239;DHT22;5677;48.488;13.436;2024-03-07T06:33:33;14.40;57.00
11239;DHT22;5677;48.488;13.436;2024-03-07T06:35:59;14.40;56.90
11239;DHT22;5677;48.488;13.436;2024-03-07T06:38:28;14.40;56.90
11239;DHT22;5677;48.488;13.436;2024-03-07T06:40:55;14.40;54.30
11239;DHT22;5677;48.488;13.436;2024-03-07T06:43:22;14.40;55.10
11239;DHT22;5677;48.488;13.436;2024-03-07T06:45:49;14.40;55.60
11239;DHT22;5677;48.488;13.436;2024-03-07T06:48:15;14.40;55.60
11239;DHT22;5677;48.488;13.436;2024-03-07T06:50:43;14.40;55.10
11239;DHT22;5677;48.488;13.436;2024-03-07T06:53:10;14.40;54.70
11239;DHT22;5677;48.488;13.436;2024-03-07T06:55:38;14.30;53.90
11239;DHT22;5677;48.488;13.436;2024-03-07T06:58:04;14.30;54.20
11239;DHT22;5677;48.488;13.436;2024-03-07T07:00:31;14.30;54.10
11239;DHT22;5677;48.488;13.436;2024-03-07T07:03:01;14.30;53.90
11239;DHT22;5677;48.488;13.436;2024-03-07T07:05:29;14.30;53.80
11239;DHT22;5677;48.488;13.436;2024-03-07T07:07:56;14.30;53.70
11239;DHT22;5677;48.488;13.436;2024-03-07T07:10:22;14.30;53.60
11239;DHT22;5677;48.488;13.436;2024-03-07T07:12:51;14.30;53.50
11239;DHT22;5677;48.488;13.436;2024-03-07T07:15:20;14.30;53.50
11239;DHT22;5677;48.488;13.436;2024-03-07T07:17:47;14.40;53.40
11239;DHT22;5677;48.488;13.436;2024-03-07T07:20:15;14.30;53.40
11239;DHT22;5677;48.488;13.436;2024-03-07T07:22:43;14.30;53.30
11239;DHT22;5677;48.488;13.436;2024-03-07T07:25:11;14.30;53.30
11239;DHT22;5677;48.488;13.436;2024-03-07T07:27:40;14.30;53.20
11239;DHT22;5677;48.488;13.436;2024-03-07T07:30:11;14.30;53.10
11239;DHT22;5677;48.488;13.436;2024-03-07T07:32:38;14.30;53.10
11239;DHT22;5677;48.488;13.436;2024-03-07T07:35:06;14.30;53.10
11239;DHT22;5677;48.488;13.436;2024-03-07T07:37:37;14.30;53.10
11239;DHT22;5677;48.488;13.436;2024-03-07T07:40:04;14.30;53.00
11239;DHT22;5677;48.488;13.436;2024-03-07T07:42:33;14.30;54.50
11239;DHT22;5677;48.488;13.436;2024-03-07T07:45:00;14.30;55.40
11239;DHT22;5677;48.488;13.436;2024-03-07T07:47:28;14.40;56.10
11239;DHT22;5677;48.488;13.436;2024-03-07T07:49:55;14.30;55.20
11239;DHT22;5677;48.488;13.436;2024-03-07T07:52:22;14.40;55.10
11239;DHT22;5677;48.488;13.436;2024-03-07T07:54:49;14.40;55.30
11239;DHT22;5677;48.488;13.436;2024-03-07T07:57:15;14.40;55.70
11239;DHT22;5677;48.488;13.436;2024-03-07T07:59:42;14.40;55.70
11239;DHT22;5677;48.488;13.436;2024-03-07T08:02:09;14.40;55.70
11239;DHT22;5677;48.488;13.436;2024-03-07T08:04:37;14.40;55.50
11239;DHT22;5677;48.488;13.436;2024-03-07T08:07:04;14.40;55.30
11239;DHT22;5677;48.488;13.436;2024-03-07T08:09:33;14.40;52.80
11239;DHT22;5677;48.488;13.436;2024-03-07T08:11:59;14.40;53.90
11239;DHT22;5677;48.488;13.436;2024-03-07T08:14:28;14.30;54.40
11239;DHT22;5677;48.488;13.436;2024-03-07T08:16:55;14.40;54.40
11239;DHT22;5677;48.488;13.436;2024-03-07T08:19:22;14.30;54.40
11239;DHT22;5677;48.488;13.436;2024-03-07T08:21:50;14.30;55.00
11239;DHT22;5677;48.488;13.436;2024-03-07T08:24:16;14.30;47.70
11239;DHT22;5677;48.488;13.436;2024-03-07T08:26:43;14.10;49.10
11239;DHT22;5677;48.488;13.436;2024-03-07T08:29:12;14.00;50.30
11239;DHT22;5677;48.488;13.436;2024-03-07T08:31:39;14.00;49.00
11239;DHT22;5677;48.488;13.436;2024-03-07T08:34:05;13.90;50.90
11239;DHT22;5677;48.488;13.436;2024-03-07T08:36:32;13.90;52.20
11239;DHT22;5677;48.488;13.436;2024-03-07T08:39:00;14.00;53.60
11239;DHT22;5677;48.488;13.436;2024-03-07T08:41:27;14.00;53.10
11239;DHT22;5677;48.488;13.436;2024-03-07T08:43:56;14.00;53.70
11239;DHT22;5677;48.488;13.436;2024-03-07T08:46:23;14.00;46.90
11239;DHT22;5677;48.488;13.436;2024-03-07T08:48:53;13.90;46.90
11239;DHT22;5677;48.488;13.436;2024-03-07T08:51:19;13.90;51.00
11239;DHT22;5677;48.488;13.436;2024-03-07T08:53:47;13.90;52.10
11239;DHT22;5677;48.488;13.436;2024-03-07T08:56:15;13.90;52.50
11239;DHT22;5677;48.488;13.436;2024-03-07T08:58:41;14.00;52.60
11239;DHT22;5677;48.488;13.436;2024-03-07T09:01:09;14.00;52.60
11239;DHT22;5677;48.488;13.436;2024-03-07T09:03:35;14.00;52.60
11239;DHT22;5677;48.488;13.436;2024-03-07T09:06:02;14.10;52.60
11239;DHT22;5677;48.488;13.436;2024-03-07T09:08:29;14.10;52.50
11239;DHT22;5677;48.488;13.436;2024-03-07T09:10:56;14.10;52.50
11239;DHT22;5677;48.488;13.436;2024-03-07T09:13:24;14.20;52.40
11239;DHT22;5677;48.488;13.436;2024-03-07T09:15:52;14.20;52.40
11239;DHT22;5677;48.488;13.436;2024-03-07T09:18:18;14.20;52.40
11239;DHT22;5677;48.488;13.436;2024-03-07T09:20:45;14.20;52.40
11239;DHT22;5677;48.488;13.436;2024-03-07T09:23:13;14.30;52.50
11239;DHT22;5677;48.488;13.436;2024-03-07T09:25:41;14.30;52.40
11239;DHT22;5677;48.488;13.436;2024-03-07T09:28:08;14.30;52.40
11239;DHT22;5677;48.488;13.436;2024-03-07T09:30:37;14.30;52.40
11239;DHT22;5677;48.488;13.436;2024-03-07T09:33:05;14.30;52.30
11239;DHT22;5677;48.488;13.436;2024-03-07T09:35:36;14.30;52.30
11239;DHT22;5677;48.488;13.436;2024-03-07T09:38:03;14.30;52.30
11239;DHT22;5677;48.488;13.436;2024-03-07T09:40:29;14.30;52.30
11239;DHT22;5677;48.488;13.436;2024-03-07T09:42:57;14.40;52.30
11239;DHT22;5677;48.488;13.436;2024-03-07T09:45:29;14.40;52.30
11239;DHT22;5677;48.488;13.436;2024-03-07T09:47:58;14.40;52.30
11239;DHT22;5677;48.488;13.436;2024-03-07T09:50:26;14.40;52.30
11239;DHT22;5677;48.488;13.436;2024-03-07T09:52:55;14.40;52.30
11239;DHT22;5677;48.488;13.436;2024-03-07T09:55:23;14.40;52.40
11239;DHT22;5677;48.488;13.436;2024-03-07T09:57:50;14.40;52.30
11239;DHT22;5677;48.488;13.436;2024-03-07T10:00:19;14.40;52.30
11239;DHT22;5677;48.488;13.436;2024-03-07T10:02:53;14.40;52.30
11239;DHT22;5677;48.488;13.436;2024-03-07T10:05:23;14.50;52.30
11239;DHT22;5677;48.488;13.436;2024-03-07T10:07:52;14.50;52.30
11239;DHT22;5677;48.488;13.436;2024-03-07T10:10:20;14.40;52.20
11239;DHT22;5677;48.488;13.436;2024-03-07T10:12:47;14.50;52.20
11239;DHT22;5677;48.488;13.436;2024-03-07T10:15:14;14.50;52.20
11239;DHT22;5677;48.488;13.436;2024-03-07T10:17:43;14.50;52.20
11239;DHT22;5677;48.488;13.436;2024-03-07T10:20:12;14.50;52.10
11239;DHT22;5677;48.488;13.436;2024-03-07T10:22:41;14.50;52.10
11239;DHT22;5677;48.488;13.436;2024-03-07T10:25:08;14.50;52.10
11239;DHT22;5677;48.488;13.436;2024-03-07T10:27:36;14.50;52.10
11239;DHT22;5677;48.488;13.436;2024-03-07T10:30:04;14.60;52.10
11239;DHT22;5677;48.488;13.436;2024-03-07T10:32:33;14.60;52.10
11239;DHT22;5677;48.488;13.436;2024-03-07T10:35:01;14.60;52.10
11239;DHT22;5677;48.488;13.436;2024-03-07T10:37:29;14.60;52.00
11239;DHT22;5677;48.488;13.436;2024-03-07T10:39:58;14.60;52.00
11239;DHT22;5677;48.488;13.436;2024-03-07T10:42:29;14.60;52.00
11239;DHT22;5677;48.488;13.436;2024-03-07T10:45:02;14.60;52.00
11239;DHT22;5677;48.488;13.436;2024-03-07T10:47:31;14.60;52.00
11239;DHT22;5677;48.488;13.436;2024-03-07T10:50:09;14.60;51.90
11239;DHT22;5677;48.488;13.436;2024-03-07T10:52:46;14.60;51.90
11239;DHT22;5677;48.488;13.436;2024-03-07T10:55:26;14.60;51.90
11239;DHT22;5677;48.488;13.436;2024-03-07T10:58:02;14.70;52.00
11239;DHT22;5677;48.488;13.436;2024-03-07T11:00:31;14.60;51.90
11239;DHT22;5677;48.488;13.436;2024-03-07T11:03:01;14.60;51.90
11239;DHT22;5677;48.488;13.436;2024-03-07T11:05:33;14.60;51.90
11239;DHT22;5677;48.488;13.436;2024-03-07T11:08:01;14.60;51.90
11239;DHT22;5677;48.488;13.436;2024-03-07T11:10:34;14.60;52.00
11239;DHT22;5677;48.488;13.436;2024-03-07T11:13:01;14.60;52.00
11239;DHT22;5677;48.488;13.436;2024-03-07T11:15:30;14.60;52.00
11239;DHT22;5677;48.488;13.436;2024-03-07T11:17:57;14.60;52.10
11239;DHT22;5677;48.488;13.436;2024-03-07T11:20:25;14.60;52.10
11239;DHT22;5677;48.488;13.436;2024-03-07T11:22:52;14.60;52.10
11239;DHT22;5677;48.488;13.436;2024-03-07T11:25:21;14.60;52.10
11239;DHT22;5677;48.488;13.436;2024-03-07T11:27:54;14.60;52.10
11239;DHT22;5677;48.488;13.436;2024-03-07T11:30:22;14.60;52.10
11239;DHT22;5677;48.488;13.436;2024-03-07T11:32:49;14.60;52.10
11239;DHT22;5677;48.488;13.436;2024-03-07T11:35:18;14.60;52.10
11239;DHT22;5677;48.488;13.436;2024-03-07T11:37:56;14.60;52.10
11239;DHT22;5677;48.488;13.436;2024-03-07T11:40:44;14.60;52.10
11239;DHT22;5677;48.488;13.436;2024-03-07T11:43:13;14.60;52.10
11239;DHT22;5677;48.488;13.436;2024-03-07T11:45:40;14.60;52.10
11239;DHT22;5677;48.488;13.436;2024-03-07T11:48:11;14.60;52.10
11239;DHT22;5677;48.488;13.436;2024-03-07T11:50:39;14.60;52.10
11239;DHT22;5677;48.488;13.436;2024-03-07T11:53:07;14.60;52.10
11239;DHT22;5677;48.488;13.436;2024-03-07T11:55:34;14.60;52.10
11239;DHT22;5677;48.488;13.436;2024-03-07T11:58:07;14.60;52.10
11239;DHT22;5677;48.488;13.436;2024-03-07T12:00:35;14.60;52.10
11239;DHT22;5677;48.488;13.436;2024-03-07T12:03:02;14.60;52.10
11239;DHT22;5677;48.488;13.436;2024-03-07T12:05:32;14.60;52.10
11239;DHT22;5677;48.488;13.436;2024-03-07T12:08:01;14.60;52.10
11239;DHT22;5677;48.488;13.436;2024-03-07T12:10:31;14.60;52.10
11239;DHT22;5677;48.488;13.436;2024-03-07T12:12:59;14.60;52.10
11239;DHT22;5677;48.488;13.436;2024-03-07T12:15:27;14.60;52.20
11239;DHT22;5677;48.488;13.436;2024-03-07T12:17:56;14.60;52.10
11239;DHT22;5677;48.488;13.436;2024-03-07T12:20:23;14.60;52.20
11239;DHT22;5677;48.488;13.436;2024-03-07T12:22:56;14.60;52.10
11239;DHT22;5677;48.488;13.436;2024-03-07T12:25:23;14.60;52.10
11239;DHT22;5677;48.488;13.436;2024-03-07T12:27:59;14.60;52.10
11239;DHT22;5677;48.488;13.436;2024-03-07T12:30:28;14.60;52.10
11239;DHT22;5677;48.488;13.436;2024-03-07T12:33:00;14.60;52.20
11239;DHT22;5677;48.488;13.436;2024-03-07T12:35:29;14.60;52.10
11239;DHT22;5677;48.488;13.436;2024-03-07T12:37:57;14.60;52.20
11239;DHT22;5677;48.488;13.436;2024-03-07T12:40:24;14.60;52.20
11239;DHT22;5677;48.488;13.436;2024-03-07T12:42:54;14.60;52.10
11239;DHT22;5677;48.488;13.436;2024-03-07T12:45:21;14.60;52.20
11239;DHT22;5677;48.488;13.436;2024-03-07T12:47:48;14.60;52.10
11239;DHT22;5677;48.488;13.436;2024-03-07T12:50:18;14.60;52.10
11239;DHT22;5677;48.488;13.436;2024-03-07T12:52:46;14.60;52.10
11239;DHT22;5677;48.488;13.436;2024-03-07T12:55:15;14.60;52.10
11239;DHT22;5677;48.488;13.436;2024-03-07T12:57:47;14.60;52.10
11239;DHT22;5677;48.488;13.436;2024-03-07T13:00:15;14.60;52.10
11239;DHT22;5677;48.488;13.436;2024-03-07T13:02:46;14.60;52.10
11239;DHT22;5677;48.488;13.436;2024-03-07T13:05:13;14.60;52.00
11239;DHT22;5677;48.488;13.436;2024-03-07T13:07:46;14.60;52.10
11239;DHT22;5677;48.488;13.436;2024-03-07T13:10:14;14.60;52.10
11239;DHT22;5677;48.488;13.436;2024-03-07T13:12:42;14.60;52.00
11239;DHT22;5677;48.488;13.436;2024-03-07T13:15:11;14.60;52.00
11239;DHT22;5677;48.488;13.436;2024-03-07T13:17:37;14.60;52.00
11239;DHT22;5677;48.488;13.436;2024-03-07T13:20:05;14.60;52.00
11239;DHT22;5677;48.488;13.436;2024-03-07T13:22:38;14.60;52.00
11239;DHT22;5677;48.488;13.436;2024-03-07T13:25:06;14.60;51.90
11239;DHT22;5677;48.488;13.436;2024-03-07T13:27:40;14.60;51.90
11239;DHT22;5677;48.488;13.436;2024-03-07T13:30:10;14.70;52.00
11239;DHT22;5677;48.488;13.436;2024-03-07T13:32:50;14.60;52.00
11239;DHT22;5677;48.488;13.436;2024-03-07T13:35:19;14.70;52.00
11239;DHT22;5677;48.488;13.436;2024-03-07T13:37:47;14.70;52.00
11239;DHT22;5677;48.488;13.436;2024-03-07T13:40:16;14.70;51.90
11239;DHT22;5677;48.488;13.436;2024-03-07T13:42:50;14.70;51.90
11239;DHT22;5677;48.488;13.436;2024-03-07T13:45:18;14.70;51.90
11239;DHT22;5677;48.488;13.436;2024-03-07T13:47:46;14.70;51.90
11239;DHT22;5677;48.488;13.436;2024-03-07T13:50:15;14.70;51.90
11239;DHT22;5677;48.488;13.436;2024-03-07T13:52:41;14.70;51.90
11239;DHT22;5677;48.488;13.436;2024-03-07T13:55:31;14.70;51.90
11239;DHT22;5677;48.488;13.436;2024-03-07T13:58:02;14.70;51.90
11239;DHT22;5677;48.488;13.436;2024-03-07T14:00:44;14.70;51.90
11239;DHT22;5677;48.488;13.436;2024-03-07T14:03:40;14.70;51.90
11239;DHT22;5677;48.488;13.436;2024-03-07T14:06:21;14.70;51.90
11239;DHT22;5677;48.488;13.436;2024-03-07T14:12:27;14.70;51.90
11239;DHT22;5677;48.488;13.436;2024-03-07T14:15:31;14.80;51.90
11239;DHT22;5677;48.488;13.436;2024-03-07T14:18:32;14.80;51.80
11239;DHT22;5677;48.488;13.436;2024-03-07T14:21:31;14.80;51.80
11239;DHT22;5677;48.488;13.436;2024-03-07T14:24:36;14.70;51.80
11239;DHT22;5677;48.488;13.436;2024-03-07T14:27:22;14.80;51.80
11239;DHT22;5677;48.488;13.436;2024-03-07T14:29:56;14.80;51.80
11239;DHT22;5677;48.488;13.436;2024-03-07T14:32:26;14.70;51.80
11239;DHT22;5677;48.488;13.436;2024-03-07T14:35:00;14.70;51.80
11239;DHT22;5677;48.488;13.436;2024-03-07T14:37:35;14.80;51.80
11239;DHT22;5677;48.488;13.436;2024-03-07T14:40:09;14.70;52.20
11239;DHT22;5677;48.488;13.436;2024-03-07T14:42:41;14.80;51.80
11239;DHT22;5677;48.488;13.436;2024-03-07T14:45:12;14.70;51.80
11239;DHT22;5677;48.488;13.436;2024-03-07T14:47:39;14.70;51.80
11239;DHT22;5677;48.488;13.436;2024-03-07T14:50:06;14.80;51.80
11239;DHT22;5677;48.488;13.436;2024-03-07T14:52:35;14.70;51.80
11239;DHT22;5677;48.488;13.436;2024-03-07T14:55:06;14.70;51.80
11239;DHT22;5677;48.488;13.436;2024-03-07T14:57:33;14.70;51.80
11239;DHT22;5677;48.488;13.436;2024-03-07T15:00:02;14.70;51.80
11239;DHT22;5677;48.488;13.436;2024-03-07T15:02:33;14.80;51.80
11239;DHT22;5677;48.488;13.436;2024-03-07T15:05:03;14.80;51.80
11239;DHT22;5677;48.488;13.436;2024-03-07T15:07:30;14.80;51.70
11239;DHT22;5677;48.488;13.436;2024-03-07T15:09:57;14.80;51.80
11239;DHT22;5677;48.488;13.436;2024-03-07T15:12:24;14.80;51.70
11239;DHT22;5677;48.488;13.436;2024-03-07T15:14:51;14.80;51.70
11239;DHT22;5677;48.488;13.436;2024-03-07T15:17:19;14.80;51.60
11239;DHT22;5677;48.488;13.436;2024-03-07T15:19:45;14.80;51.70
11239;DHT22;5677;48.488;13.436;2024-03-07T15:22:12;14.80;51.60
11239;DHT22;5677;48.488;13.436;2024-03-07T15:24:41;14.80;51.60
11239;DHT22;5677;48.488;13.436;2024-03-07T15:27:08;14.80;51.60
11239;DHT22;5677;48.488;13.436;2024-03-07T15:29:36;14.80;51.60
11239;DHT22;5677;48.488;13.436;2024-03-07T15:32:03;14.90;51.70
11239;DHT22;5677;48.488;13.436;2024-03-07T15:34:32;14.80;51.60
11239;DHT22;5677;48.488;13.436;2024-03-07T15:37:02;14.80;51.50
11239;DHT22;5677;48.488;13.436;2024-03-07T15:39:30;14.80;51.50
11239;DHT22;5677;48.488;13.436;2024-03-07T15:42:03;14.80;51.50
11239;DHT22;5677;48.488;13.436;2024-03-07T15:44:30;14.80;51.50